sensor_id;sensor_type;location;lat;lon;timestamp;P1;durP1;ratioP1;P2;durP2;ratioP2
55090;SDS011;40985;53.180;5.800;2022-12-18T00:03:52;128.73;;;46.55;;
55090;SDS011;40985;53.180;5.800;2022-12-18T00:06:19;130.05;;;47.47;;
55090;SDS011;40985;53.180;5.800;2022-12-18T00:08:46;125.68;;;45.00;;
55090;SDS011;40985;53.180;5.800;2022-12-18T00:11:13;122.68;;;45.60;;
55090;SDS011;40985;53.180;5.800;2022-12-18T00:13:41;124.72;;;45.42;;
55090;SDS011;40985;53.180;5.800;2022-12-18T00:16:07;121.55;;;44.15;;
55090;SDS011;40985;53.180;5.800;2022-12-18T00:18:35;124.65;;;47.78;;
55090;SDS011;40985;53.180;5.800;2022-12-18T00:21:02;121.57;;;44.78;;
55090;SDS011;40985;53.180;5.800;2022-12-18T00:23:30;127.35;;;46.17;;
55090;SDS011;40985;53.180;5.800;2022-12-18T00:25:59;120.72;;;44.58;;
55090;SDS011;40985;53.180;5.800;2022-12-18T00:28:26;118.40;;;45.67;;
55090;SDS011;40985;53.180;5.800;2022-12-18T00:30:59;127.75;;;44.92;;
55090;SDS011;40985;53.180;5.800;2022-12-18T00:33:25;115.80;;;43.67;;
55090;SDS011;40985;53.180;5.800;2022-12-18T00:35:51;126.45;;;44.50;;
55090;SDS011;40985;53.180;5.800;2022-12-18T00:38:17;125.57;;;46.63;;
55090;SDS011;40985;53.180;5.800;2022-12-18T00:40:42;113.82;;;42.15;;
55090;SDS011;40985;53.180;5.800;2022-12-18T00:43:09;113.15;;;43.05;;
55090;SDS011;40985;53.180;5.800;2022-12-18T00:45:34;125.10;;;44.03;;
55090;SDS011;40985;53.180;5.800;2022-12-18T00:48:00;116.95;;;42.13;;
55090;SDS011;40985;53.180;5.800;2022-12-18T00:50:26;118.55;;;43.60;;
55090;SDS011;40985;53.180;5.800;2022-12-18T00:52:52;118.43;;;44.92;;
55090;SDS011;40985;53.180;5.800;2022-12-18T00:55:17;116.22;;;43.17;;
55090;SDS011;40985;53.180;5.800;2022-12-18T00:57:43;113.60;;;42.47;;
55090;SDS011;40985;53.180;5.800;2022-12-18T01:00:11;119.72;;;44.30;;
55090;SDS011;40985;53.180;5.800;2022-12-18T01:02:38;101.60;;;40.65;;
55090;SDS011;40985;53.180;5.800;2022-12-18T01:05:04;106.90;;;42.53;;
55090;SDS011;40985;53.180;5.800;2022-12-18T01:07:30;102.78;;;38.97;;
55090;SDS011;40985;53.180;5.800;2022-12-18T01:09:56;116.10;;;42.55;;
55090;SDS011;40985;53.180;5.800;2022-12-18T01:12:21;106.15;;;42.42;;
55090;SDS011;40985;53.180;5.800;2022-12-18T01:14:47;108.97;;;41.15;;
55090;SDS011;40985;53.180;5.800;2022-12-18T01:17:13;116.90;;;41.58;;
55090;SDS011;40985;53.180;5.800;2022-12-18T01:19:39;105.53;;;41.35;;
55090;SDS011;40985;53.180;5.800;2022-12-18T01:22:05;111.30;;;41.88;;
55090;SDS011;40985;53.180;5.800;2022-12-18T01:24:31;110.30;;;41.63;;
55090;SDS011;40985;53.180;5.800;2022-12-18T01:26:56;117.22;;;43.15;;
55090;SDS011;40985;53.180;5.800;2022-12-18T01:29:23;109.40;;;40.78;;
55090;SDS011;40985;53.180;5.800;2022-12-18T01:31:48;109.78;;;42.00;;
55090;SDS011;40985;53.180;5.800;2022-12-18T01:34:14;105.70;;;39.25;;
55090;SDS011;40985;53.180;5.800;2022-12-18T01:36:40;103.78;;;39.47;;
55090;SDS011;40985;53.180;5.800;2022-12-18T01:39:12;103.13;;;39.47;;
55090;SDS011;40985;53.180;5.800;2022-12-18T01:41:39;102.70;;;39.50;;
55090;SDS011;40985;53.180;5.800;2022-12-18T01:50:06;96.10;;;37.22;;
55090;SDS011;40985;53.180;5.800;2022-12-18T01:52:43;104.25;;;38.80;;
55090;SDS011;40985;53.180;5.800;2022-12-18T01:55:12;109.22;;;40.22;;
55090;SDS011;40985;53.180;5.800;2022-12-18T01:57:41;109.95;;;39.53;;
55090;SDS011;40985;53.180;5.800;2022-12-18T02:00:11;107.55;;;40.25;;
55090;SDS011;40985;53.180;5.800;2022-12-18T02:02:43;111.95;;;40.90;;
55090;SDS011;40985;53.180;5.800;2022-12-18T02:05:11;110.53;;;37.67;;
55090;SDS011;40985;53.180;5.800;2022-12-18T02:10:25;103.97;;;38.38;;
55090;SDS011;40985;53.180;5.800;2022-12-18T02:19:03;102.60;;;36.30;;
55090;SDS011;40985;53.180;5.800;2022-12-18T02:22:06;112.68;;;38.72;;
55090;SDS011;40985;53.180;5.800;2022-12-18T02:25:13;101.85;;;36.72;;
55090;SDS011;40985;53.180;5.800;2022-12-18T02:27:48;102.60;;;36.67;;
55090;SDS011;40985;53.180;5.800;2022-12-18T02:30:15;99.90;;;36.75;;
55090;SDS011;40985;53.180;5.800;2022-12-18T02:32:47;108.93;;;38.38;;
55090;SDS011;40985;53.180;5.800;2022-12-18T02:35:17;108.20;;;37.13;;
55090;SDS011;40985;53.180;5.800;2022-12-18T02:37:47;109.28;;;37.72;;
55090;SDS011;40985;53.180;5.800;2022-12-18T02:40:14;105.88;;;38.42;;
55090;SDS011;40985;53.180;5.800;2022-12-18T02:42:41;110.00;;;38.55;;
55090;SDS011;40985;53.180;5.800;2022-12-18T02:45:07;102.80;;;36.25;;
55090;SDS011;40985;53.180;5.800;2022-12-18T02:47:34;103.05;;;36.08;;
55090;SDS011;40985;53.180;5.800;2022-12-18T02:50:07;98.65;;;36.88;;
55090;SDS011;40985;53.180;5.800;2022-12-18T02:55:22;105.88;;;36.13;;
55090;SDS011;40985;53.180;5.800;2022-12-18T03:00:39;99.45;;;33.83;;
55090;SDS011;40985;53.180;5.800;2022-12-18T03:05:43;100.55;;;36.63;;
55090;SDS011;40985;53.180;5.800;2022-12-18T03:08:26;92.50;;;34.13;;
55090;SDS011;40985;53.180;5.800;2022-12-18T03:10:55;101.70;;;35.90;;
55090;SDS011;40985;53.180;5.800;2022-12-18T03:13:34;106.80;;;35.13;;
55090;SDS011;40985;53.180;5.800;2022-12-18T03:16:08;102.97;;;34.70;;
55090;SDS011;40985;53.180;5.800;2022-12-18T03:18:43;92.22;;;33.05;;
55090;SDS011;40985;53.180;5.800;2022-12-18T03:21:17;100.05;;;33.90;;
55090;SDS011;40985;53.180;5.800;2022-12-18T03:23:47;107.30;;;36.00;;
55090;SDS011;40985;53.180;5.800;2022-12-18T03:26:16;103.65;;;34.28;;
55090;SDS011;40985;53.180;5.800;2022-12-18T03:28:49;110.43;;;36.10;;
55090;SDS011;40985;53.180;5.800;2022-12-18T03:31:18;97.10;;;34.03;;
55090;SDS011;40985;53.180;5.800;2022-12-18T03:34:09;111.30;;;35.83;;
55090;SDS011;40985;53.180;5.800;2022-12-18T03:36:37;104.13;;;35.15;;
55090;SDS011;40985;53.180;5.800;2022-12-18T03:39:02;109.55;;;35.65;;
55090;SDS011;40985;53.180;5.800;2022-12-18T03:41:30;104.68;;;34.65;;
55090;SDS011;40985;53.180;5.800;2022-12-18T03:44:38;106.15;;;34.55;;
55090;SDS011;40985;53.180;5.800;2022-12-18T03:47:07;99.35;;;33.78;;
55090;SDS011;40985;53.180;5.800;2022-12-18T03:52:24;101.68;;;34.13;;
55090;SDS011;40985;53.180;5.800;2022-12-18T03:54:51;102.60;;;32.97;;
55090;SDS011;40985;53.180;5.800;2022-12-18T03:57:19;105.80;;;35.05;;
55090;SDS011;40985;53.180;5.800;2022-12-18T03:59:49;104.45;;;34.40;;
55090;SDS011;40985;53.180;5.800;2022-12-18T04:02:19;103.03;;;32.28;;
55090;SDS011;40985;53.180;5.800;2022-12-18T04:04:47;109.43;;;35.70;;
55090;SDS011;40985;53.180;5.800;2022-12-18T04:07:20;107.90;;;36.55;;
55090;SDS011;40985;53.180;5.800;2022-12-18T04:09:46;107.68;;;36.00;;
55090;SDS011;40985;53.180;5.800;2022-12-18T04:12:13;105.07;;;34.40;;
55090;SDS011;40985;53.180;5.800;2022-12-18T04:14:39;105.95;;;36.38;;
55090;SDS011;40985;53.180;5.800;2022-12-18T04:17:05;105.65;;;35.58;;
55090;SDS011;40985;53.180;5.800;2022-12-18T04:19:31;107.30;;;37.42;;
55090;SDS011;40985;53.180;5.800;2022-12-18T04:21:56;115.68;;;37.33;;
55090;SDS011;40985;53.180;5.800;2022-12-18T04:24:22;102.05;;;35.80;;
55090;SDS011;40985;53.180;5.800;2022-12-18T04:26:47;110.20;;;36.08;;
55090;SDS011;40985;53.180;5.800;2022-12-18T04:29:13;98.38;;;36.92;;
55090;SDS011;40985;53.180;5.800;2022-12-18T04:31:39;105.15;;;35.20;;
55090;SDS011;40985;53.180;5.800;2022-12-18T04:34:04;108.97;;;37.40;;
55090;SDS011;40985;53.180;5.800;2022-12-18T04:36:30;106.60;;;35.60;;
55090;SDS011;40985;53.180;5.800;2022-12-18T04:38:56;99.82;;;36.53;;
55090;SDS011;40985;53.180;5.800;2022-12-18T04:41:21;101.80;;;35.97;;
55090;SDS011;40985;53.180;5.800;2022-12-18T04:43:47;104.50;;;37.13;;
55090;SDS011;40985;53.180;5.800;2022-12-18T04:46:13;110.80;;;38.30;;
55090;SDS011;40985;53.180;5.800;2022-12-18T04:48:38;104.07;;;36.88;;
55090;SDS011;40985;53.180;5.800;2022-12-18T04:51:04;109.63;;;34.60;;
55090;SDS011;40985;53.180;5.800;2022-12-18T04:53:31;106.43;;;36.63;;
55090;SDS011;40985;53.180;5.800;2022-12-18T04:58:29;105.70;;;36.22;;
55090;SDS011;40985;53.180;5.800;2022-12-18T05:00:55;105.35;;;36.55;;
55090;SDS011;40985;53.180;5.800;2022-12-18T05:03:20;102.07;;;36.17;;
55090;SDS011;40985;53.180;5.800;2022-12-18T05:05:49;99.13;;;34.97;;
55090;SDS011;40985;53.180;5.800;2022-12-18T05:08:15;112.57;;;37.63;;
55090;SDS011;40985;53.180;5.800;2022-12-18T05:10:41;97.95;;;35.40;;
55090;SDS011;40985;53.180;5.800;2022-12-18T05:13:07;106.95;;;35.63;;
55090;SDS011;40985;53.180;5.800;2022-12-18T05:15:33;100.25;;;34.88;;
55090;SDS011;40985;53.180;5.800;2022-12-18T05:17:59;97.07;;;34.85;;
55090;SDS011;40985;53.180;5.800;2022-12-18T05:20:26;101.93;;;35.40;;
55090;SDS011;40985;53.180;5.800;2022-12-18T05:22:53;95.88;;;34.75;;
55090;SDS011;40985;53.180;5.800;2022-12-18T05:25:19;86.03;;;32.45;;
55090;SDS011;40985;53.180;5.800;2022-12-18T05:27:45;99.55;;;34.45;;
55090;SDS011;40985;53.180;5.800;2022-12-18T05:30:11;96.57;;;34.88;;
55090;SDS011;40985;53.180;5.800;2022-12-18T05:32:37;90.65;;;33.75;;
55090;SDS011;40985;53.180;5.800;2022-12-18T05:35:05;92.97;;;33.92;;
55090;SDS011;40985;53.180;5.800;2022-12-18T05:37:32;87.15;;;31.52;;
55090;SDS011;40985;53.180;5.800;2022-12-18T05:39:58;86.82;;;32.05;;
55090;SDS011;40985;53.180;5.800;2022-12-18T05:42:24;88.72;;;31.83;;
55090;SDS011;40985;53.180;5.800;2022-12-18T05:44:50;81.03;;;31.00;;
55090;SDS011;40985;53.180;5.800;2022-12-18T05:47:15;92.55;;;33.35;;
55090;SDS011;40985;53.180;5.800;2022-12-18T05:49:41;88.88;;;33.28;;
55090;SDS011;40985;53.180;5.800;2022-12-18T05:52:07;84.00;;;32.22;;
55090;SDS011;40985;53.180;5.800;2022-12-18T05:54:33;82.88;;;31.23;;
55090;SDS011;40985;53.180;5.800;2022-12-18T05:56:58;84.55;;;31.92;;
55090;SDS011;40985;53.180;5.800;2022-12-18T05:59:24;74.03;;;29.27;;
55090;SDS011;40985;53.180;5.800;2022-12-18T06:01:49;90.00;;;32.67;;
55090;SDS011;40985;53.180;5.800;2022-12-18T06:04:15;83.50;;;30.13;;
55090;SDS011;40985;53.180;5.800;2022-12-18T06:06:41;78.57;;;31.55;;
55090;SDS011;40985;53.180;5.800;2022-12-18T06:09:06;86.07;;;32.08;;
55090;SDS011;40985;53.180;5.800;2022-12-18T06:11:35;85.32;;;30.00;;
55090;SDS011;40985;53.180;5.800;2022-12-18T06:14:01;85.22;;;31.38;;
55090;SDS011;40985;53.180;5.800;2022-12-18T06:16:28;89.45;;;32.63;;
55090;SDS011;40985;53.180;5.800;2022-12-18T06:19:01;86.20;;;30.90;;
55090;SDS011;40985;53.180;5.800;2022-12-18T06:21:28;82.05;;;30.98;;
55090;SDS011;40985;53.180;5.800;2022-12-18T06:23:54;83.88;;;31.10;;
55090;SDS011;40985;53.180;5.800;2022-12-18T06:26:20;75.10;;;30.30;;
55090;SDS011;40985;53.180;5.800;2022-12-18T06:28:46;81.30;;;30.58;;
55090;SDS011;40985;53.180;5.800;2022-12-18T06:31:12;82.07;;;30.60;;
55090;SDS011;40985;53.180;5.800;2022-12-18T06:33:38;75.65;;;29.98;;
55090;SDS011;40985;53.180;5.800;2022-12-18T06:36:05;71.57;;;29.27;;
55090;SDS011;40985;53.180;5.800;2022-12-18T06:38:36;75.88;;;28.15;;
55090;SDS011;40985;53.180;5.800;2022-12-18T06:41:11;74.25;;;27.92;;
55090;SDS011;40985;53.180;5.800;2022-12-18T06:43:38;76.07;;;28.42;;
55090;SDS011;40985;53.180;5.800;2022-12-18T06:46:04;67.75;;;26.33;;
55090;SDS011;40985;53.180;5.800;2022-12-18T06:48:30;70.10;;;28.00;;
55090;SDS011;40985;53.180;5.800;2022-12-18T06:50:57;74.03;;;27.48;;
55090;SDS011;40985;53.180;5.800;2022-12-18T06:53:23;68.13;;;26.23;;
55090;SDS011;40985;53.180;5.800;2022-12-18T06:55:49;69.03;;;26.92;;
55090;SDS011;40985;53.180;5.800;2022-12-18T06:58:14;63.33;;;26.08;;
55090;SDS011;40985;53.180;5.800;2022-12-18T07:00:40;67.07;;;26.67;;
55090;SDS011;40985;53.180;5.800;2022-12-18T07:03:06;68.93;;;26.90;;
55090;SDS011;40985;53.180;5.800;2022-12-18T07:05:32;69.15;;;26.95;;
55090;SDS011;40985;53.180;5.800;2022-12-18T07:07:58;67.72;;;28.65;;
55090;SDS011;40985;53.180;5.800;2022-12-18T07:10:23;69.03;;;28.08;;
55090;SDS011;40985;53.180;5.800;2022-12-18T07:12:49;60.83;;;24.75;;
55090;SDS011;40985;53.180;5.800;2022-12-18T07:15:15;66.40;;;26.40;;
55090;SDS011;40985;53.180;5.800;2022-12-18T07:17:41;63.78;;;25.17;;
55090;SDS011;40985;53.180;5.800;2022-12-18T07:20:07;64.03;;;24.77;;
55090;SDS011;40985;53.180;5.800;2022-12-18T07:22:33;65.22;;;24.35;;
55090;SDS011;40985;53.180;5.800;2022-12-18T07:24:59;61.70;;;24.40;;
55090;SDS011;40985;53.180;5.800;2022-12-18T07:27:24;62.65;;;25.45;;
55090;SDS011;40985;53.180;5.800;2022-12-18T07:29:50;60.20;;;23.75;;
55090;SDS011;40985;53.180;5.800;2022-12-18T07:32:16;61.30;;;24.73;;
55090;SDS011;40985;53.180;5.800;2022-12-18T07:34:41;63.65;;;24.92;;
55090;SDS011;40985;53.180;5.800;2022-12-18T07:37:07;56.10;;;23.83;;
55090;SDS011;40985;53.180;5.800;2022-12-18T07:39:32;61.70;;;23.35;;
55090;SDS011;40985;53.180;5.800;2022-12-18T07:41:58;61.05;;;23.92;;
55090;SDS011;40985;53.180;5.800;2022-12-18T07:44:42;55.08;;;22.90;;
55090;SDS011;40985;53.180;5.800;2022-12-18T07:47:08;63.30;;;23.40;;
55090;SDS011;40985;53.180;5.800;2022-12-18T07:49:33;54.97;;;23.88;;
55090;SDS011;40985;53.180;5.800;2022-12-18T07:51:59;54.33;;;22.25;;
55090;SDS011;40985;53.180;5.800;2022-12-18T07:54:25;55.95;;;23.65;;
55090;SDS011;40985;53.180;5.800;2022-12-18T07:56:51;54.05;;;23.48;;
55090;SDS011;40985;53.180;5.800;2022-12-18T07:59:17;51.05;;;21.23;;
55090;SDS011;40985;53.180;5.800;2022-12-18T08:01:43;54.83;;;22.60;;
55090;SDS011;40985;53.180;5.800;2022-12-18T08:04:09;55.67;;;21.73;;
55090;SDS011;40985;53.180;5.800;2022-12-18T08:06:34;51.40;;;21.27;;
55090;SDS011;40985;53.180;5.800;2022-12-18T08:09:00;46.05;;;21.75;;
55090;SDS011;40985;53.180;5.800;2022-12-18T08:11:27;50.38;;;21.17;;
55090;SDS011;40985;53.180;5.800;2022-12-18T08:13:53;57.17;;;22.13;;
55090;SDS011;40985;53.180;5.800;2022-12-18T08:16:19;48.38;;;20.83;;
55090;SDS011;40985;53.180;5.800;2022-12-18T08:18:46;46.78;;;21.70;;
55090;SDS011;40985;53.180;5.800;2022-12-18T08:23:59;47.42;;;20.00;;
55090;SDS011;40985;53.180;5.800;2022-12-18T08:26:27;47.83;;;21.80;;
55090;SDS011;40985;53.180;5.800;2022-12-18T08:28:54;52.05;;;20.95;;
55090;SDS011;40985;53.180;5.800;2022-12-18T08:31:21;50.00;;;21.00;;
55090;SDS011;40985;53.180;5.800;2022-12-18T08:33:51;45.88;;;20.38;;
55090;SDS011;40985;53.180;5.800;2022-12-18T08:36:17;41.90;;;19.92;;
55090;SDS011;40985;53.180;5.800;2022-12-18T08:38:44;52.75;;;20.08;;
55090;SDS011;40985;53.180;5.800;2022-12-18T08:41:10;49.83;;;20.42;;
55090;SDS011;40985;53.180;5.800;2022-12-18T08:43:38;48.78;;;20.95;;
55090;SDS011;40985;53.180;5.800;2022-12-18T08:46:23;48.10;;;20.05;;
55090;SDS011;40985;53.180;5.800;2022-12-18T08:48:50;53.75;;;21.80;;
55090;SDS011;40985;53.180;5.800;2022-12-18T08:51:17;43.30;;;20.55;;
55090;SDS011;40985;53.180;5.800;2022-12-18T08:53:43;49.47;;;21.67;;
55090;SDS011;40985;53.180;5.800;2022-12-18T08:56:10;47.97;;;21.63;;
55090;SDS011;40985;53.180;5.800;2022-12-18T08:58:35;41.67;;;19.15;;
55090;SDS011;40985;53.180;5.800;2022-12-18T09:01:05;41.30;;;20.02;;
55090;SDS011;40985;53.180;5.800;2022-12-18T09:03:33;45.72;;;19.25;;
55090;SDS011;40985;53.180;5.800;2022-12-18T09:05:59;45.30;;;22.23;;
55090;SDS011;40985;53.180;5.800;2022-12-18T09:08:25;45.72;;;20.58;;
55090;SDS011;40985;53.180;5.800;2022-12-18T09:10:51;38.53;;;19.42;;
55090;SDS011;40985;53.180;5.800;2022-12-18T09:13:17;40.97;;;20.83;;
55090;SDS011;40985;53.180;5.800;2022-12-18T09:15:44;49.28;;;20.20;;
55090;SDS011;40985;53.180;5.800;2022-12-18T09:18:12;43.20;;;20.42;;
55090;SDS011;40985;53.180;5.800;2022-12-18T09:20:39;45.15;;;22.17;;
55090;SDS011;40985;53.180;5.800;2022-12-18T09:23:05;48.40;;;22.05;;
55090;SDS011;40985;53.180;5.800;2022-12-18T09:25:32;39.10;;;19.67;;
55090;SDS011;40985;53.180;5.800;2022-12-18T09:28:00;41.00;;;19.73;;
55090;SDS011;40985;53.180;5.800;2022-12-18T09:30:37;40.15;;;19.13;;
55090;SDS011;40985;53.180;5.800;2022-12-18T09:33:03;45.38;;;21.02;;
55090;SDS011;40985;53.180;5.800;2022-12-18T09:35:29;38.63;;;18.85;;
55090;SDS011;40985;53.180;5.800;2022-12-18T09:37:55;38.78;;;18.35;;
55090;SDS011;40985;53.180;5.800;2022-12-18T09:40:22;37.35;;;17.35;;
55090;SDS011;40985;53.180;5.800;2022-12-18T09:43:00;39.72;;;19.38;;
55090;SDS011;40985;53.180;5.800;2022-12-18T09:45:40;43.13;;;19.15;;
55090;SDS011;40985;53.180;5.800;2022-12-18T09:48:17;39.92;;;18.98;;
55090;SDS011;40985;53.180;5.800;2022-12-18T09:50:48;38.13;;;17.40;;
55090;SDS011;40985;53.180;5.800;2022-12-18T09:53:20;36.85;;;17.98;;
55090;SDS011;40985;53.180;5.800;2022-12-18T09:55:49;37.30;;;19.15;;
55090;SDS011;40985;53.180;5.800;2022-12-18T10:01:18;39.28;;;16.63;;
55090;SDS011;40985;53.180;5.800;2022-12-18T10:03:47;37.33;;;17.73;;
55090;SDS011;40985;53.180;5.800;2022-12-18T10:06:15;34.60;;;17.00;;
55090;SDS011;40985;53.180;5.800;2022-12-18T10:08:51;32.42;;;16.27;;
55090;SDS011;40985;53.180;5.800;2022-12-18T10:22:49;26.63;;;14.23;;
55090;SDS011;40985;53.180;5.800;2022-12-18T10:25:53;25.05;;;13.35;;
55090;SDS011;40985;53.180;5.800;2022-12-18T10:28:15;29.00;;;14.35;;
55090;SDS011;40985;53.180;5.800;2022-12-18T10:30:43;22.02;;;13.70;;
55090;SDS011;40985;53.180;5.800;2022-12-18T10:33:12;23.25;;;12.82;;
55090;SDS011;40985;53.180;5.800;2022-12-18T10:35:41;24.58;;;13.20;;
55090;SDS011;40985;53.180;5.800;2022-12-18T10:43:28;24.27;;;13.15;;
55090;SDS011;40985;53.180;5.800;2022-12-18T10:51:07;25.15;;;13.20;;
55090;SDS011;40985;53.180;5.800;2022-12-18T10:53:34;19.35;;;11.98;;
55090;SDS011;40985;53.180;5.800;2022-12-18T10:56:02;21.83;;;12.20;;
55090;SDS011;40985;53.180;5.800;2022-12-18T11:01:13;19.92;;;10.50;;
55090;SDS011;40985;53.180;5.800;2022-12-18T11:03:44;17.80;;;10.63;;
55090;SDS011;40985;53.180;5.800;2022-12-18T11:06:20;18.55;;;10.80;;
55090;SDS011;40985;53.180;5.800;2022-12-18T11:11:55;18.05;;;9.65;;
55090;SDS011;40985;53.180;5.800;2022-12-18T11:17:16;17.38;;;9.60;;
55090;SDS011;40985;53.180;5.800;2022-12-18T11:19:45;13.98;;;8.85;;
55090;SDS011;40985;53.180;5.800;2022-12-18T11:22:28;14.35;;;8.05;;
55090;SDS011;40985;53.180;5.800;2022-12-18T11:24:57;13.32;;;8.68;;
55090;SDS011;40985;53.180;5.800;2022-12-18T11:27:26;13.60;;;8.60;;
55090;SDS011;40985;53.180;5.800;2022-12-18T11:29:53;12.82;;;8.15;;
55090;SDS011;40985;53.180;5.800;2022-12-18T11:41:00;15.18;;;8.20;;
55090;SDS011;40985;53.180;5.800;2022-12-18T11:44:01;11.50;;;7.57;;
55090;SDS011;40985;53.180;5.800;2022-12-18T11:46:37;13.80;;;8.02;;
55090;SDS011;40985;53.180;5.800;2022-12-18T11:49:33;11.48;;;8.40;;
55090;SDS011;40985;53.180;5.800;2022-12-18T11:52:03;15.70;;;9.02;;
55090;SDS011;40985;53.180;5.800;2022-12-18T11:54:42;18.55;;;8.43;;
55090;SDS011;40985;53.180;5.800;2022-12-18T12:00:07;18.00;;;9.20;;
55090;SDS011;40985;53.180;5.800;2022-12-18T12:02:47;16.17;;;8.77;;
55090;SDS011;40985;53.180;5.800;2022-12-18T12:05:47;12.52;;;8.15;;
55090;SDS011;40985;53.180;5.800;2022-12-18T12:14:32;13.93;;;7.65;;
55090;SDS011;40985;53.180;5.800;2022-12-18T12:17:23;12.75;;;8.63;;
55090;SDS011;40985;53.180;5.800;2022-12-18T12:22:38;14.95;;;8.30;;
55090;SDS011;40985;53.180;5.800;2022-12-18T12:28:42;13.75;;;7.20;;
55090;SDS011;40985;53.180;5.800;2022-12-18T12:33:22;11.02;;;6.70;;
55090;SDS011;40985;53.180;5.800;2022-12-18T12:38:42;12.20;;;7.68;;
55090;SDS011;40985;53.180;5.800;2022-12-18T12:41:30;11.52;;;7.65;;
55090;SDS011;40985;53.180;5.800;2022-12-18T12:44:22;11.48;;;7.32;;
55090;SDS011;40985;53.180;5.800;2022-12-18T12:46:55;12.73;;;7.20;;
55090;SDS011;40985;53.180;5.800;2022-12-18T12:49:26;12.77;;;6.43;;
55090;SDS011;40985;53.180;5.800;2022-12-18T12:52:00;9.23;;;6.00;;
55090;SDS011;40985;53.180;5.800;2022-12-18T12:54:32;11.80;;;7.50;;
55090;SDS011;40985;53.180;5.800;2022-12-18T12:57:12;10.70;;;6.75;;
55090;SDS011;40985;53.180;5.800;2022-12-18T13:00:04;8.02;;;6.07;;
55090;SDS011;40985;53.180;5.800;2022-12-18T13:08:07;10.13;;;6.95;;
55090;SDS011;40985;53.180;5.800;2022-12-18T13:10:36;10.98;;;6.25;;
55090;SDS011;40985;53.180;5.800;2022-12-18T13:25:52;9.43;;;6.28;;
55090;SDS011;40985;53.180;5.800;2022-12-18T13:29:05;10.90;;;7.15;;
55090;SDS011;40985;53.180;5.800;2022-12-18T13:31:13;11.68;;;6.65;;
55090;SDS011;40985;53.180;5.800;2022-12-18T13:34:39;12.75;;;6.93;;
55090;SDS011;40985;53.180;5.800;2022-12-18T13:36:47;11.80;;;6.53;;
55090;SDS011;40985;53.180;5.800;2022-12-18T13:41:39;7.78;;;5.18;;
55090;SDS011;40985;53.180;5.800;2022-12-18T13:44:25;10.23;;;6.38;;
55090;SDS011;40985;53.180;5.800;2022-12-18T13:46:57;14.13;;;6.68;;
55090;SDS011;40985;53.180;5.800;2022-12-18T13:52:14;7.35;;;5.45;;
55090;SDS011;40985;53.180;5.800;2022-12-18T13:54:50;7.32;;;5.90;;
55090;SDS011;40985;53.180;5.800;2022-12-18T13:57:30;7.72;;;5.88;;
55090;SDS011;40985;53.180;5.800;2022-12-18T13:59:58;10.52;;;5.40;;
55090;SDS011;40985;53.180;5.800;2022-12-18T14:02:48;7.70;;;4.88;;
55090;SDS011;40985;53.180;5.800;2022-12-18T14:05:28;11.43;;;5.55;;
55090;SDS011;40985;53.180;5.800;2022-12-18T14:08:10;9.50;;;5.88;;
55090;SDS011;40985;53.180;5.800;2022-12-18T14:10:42;8.68;;;5.93;;
55090;SDS011;40985;53.180;5.800;2022-12-18T14:13:13;11.73;;;6.03;;
55090;SDS011;40985;53.180;5.800;2022-12-18T14:15:45;14.00;;;7.07;;
55090;SDS011;40985;53.180;5.800;2022-12-18T14:21:02;8.73;;;5.25;;
55090;SDS011;40985;53.180;5.800;2022-12-18T14:26:00;10.57;;;7.28;;
55090;SDS011;40985;53.180;5.800;2022-12-18T14:28:27;9.75;;;5.10;;
55090;SDS011;40985;53.180;5.800;2022-12-18T14:30:53;10.82;;;5.78;;
55090;SDS011;40985;53.180;5.800;2022-12-18T14:33:24;7.65;;;5.32;;
55090;SDS011;40985;53.180;5.800;2022-12-18T14:41:06;8.95;;;4.70;;
55090;SDS011;40985;53.180;5.800;2022-12-18T14:43:39;6.93;;;4.18;;
55090;SDS011;40985;53.180;5.800;2022-12-18T14:48:53;6.10;;;3.47;;
55090;SDS011;40985;53.180;5.800;2022-12-18T14:51:20;6.40;;;3.53;;
55090;SDS011;40985;53.180;5.800;2022-12-18T14:54:01;4.97;;;3.47;;
55090;SDS011;40985;53.180;5.800;2022-12-18T14:56:43;4.82;;;3.55;;
55090;SDS011;40985;53.180;5.800;2022-12-18T14:59:15;5.80;;;3.28;;
55090;SDS011;40985;53.180;5.800;2022-12-18T15:04:46;6.47;;;4.20;;
55090;SDS011;40985;53.180;5.800;2022-12-18T15:07:14;7.38;;;4.07;;
55090;SDS011;40985;53.180;5.800;2022-12-18T15:10:30;6.35;;;3.55;;
55090;SDS011;40985;53.180;5.800;2022-12-18T15:12:40;7.50;;;3.92;;
55090;SDS011;40985;53.180;5.800;2022-12-18T15:18:17;4.97;;;3.35;;
55090;SDS011;40985;53.180;5.800;2022-12-18T15:25:55;5.95;;;3.97;;
55090;SDS011;40985;53.180;5.800;2022-12-18T15:28:26;4.20;;;3.22;;
55090;SDS011;40985;53.180;5.800;2022-12-18T15:31:42;10.43;;;4.30;;
55090;SDS011;40985;53.180;5.800;2022-12-18T15:36:19;5.65;;;3.80;;
55090;SDS011;40985;53.180;5.800;2022-12-18T15:38:47;5.40;;;3.50;;
55090;SDS011;40985;53.180;5.800;2022-12-18T15:41:14;6.10;;;3.78;;
55090;SDS011;40985;53.180;5.800;2022-12-18T15:43:41;6.30;;;4.03;;
55090;SDS011;40985;53.180;5.800;2022-12-18T15:46:17;6.03;;;3.78;;
55090;SDS011;40985;53.180;5.800;2022-12-18T15:48:48;8.43;;;3.95;;
55090;SDS011;40985;53.180;5.800;2022-12-18T15:53:54;7.45;;;4.43;;
55090;SDS011;40985;53.180;5.800;2022-12-18T15:56:21;8.20;;;3.85;;
55090;SDS011;40985;53.180;5.800;2022-12-18T15:59:16;7.40;;;4.22;;
55090;SDS011;40985;53.180;5.800;2022-12-18T16:01:45;8.68;;;4.75;;
55090;SDS011;40985;53.180;5.800;2022-12-18T16:04:12;6.22;;;4.60;;
55090;SDS011;40985;53.180;5.800;2022-12-18T16:06:40;7.68;;;4.38;;
55090;SDS011;40985;53.180;5.800;2022-12-18T16:09:06;7.05;;;4.63;;
55090;SDS011;40985;53.180;5.800;2022-12-18T16:11:33;6.18;;;4.03;;
55090;SDS011;40985;53.180;5.800;2022-12-18T16:14:06;6.43;;;4.33;;
55090;SDS011;40985;53.180;5.800;2022-12-18T16:16:37;5.97;;;4.07;;
55090;SDS011;40985;53.180;5.800;2022-12-18T16:19:03;6.90;;;4.57;;
55090;SDS011;40985;53.180;5.800;2022-12-18T16:21:29;7.82;;;5.03;;
55090;SDS011;40985;53.180;5.800;2022-12-18T16:23:54;8.40;;;4.82;;
55090;SDS011;40985;53.180;5.800;2022-12-18T16:26:20;8.50;;;4.80;;
55090;SDS011;40985;53.180;5.800;2022-12-18T16:28:46;7.53;;;4.65;;
55090;SDS011;40985;53.180;5.800;2022-12-18T16:31:11;6.20;;;4.05;;
55090;SDS011;40985;53.180;5.800;2022-12-18T16:33:37;6.18;;;4.03;;
55090;SDS011;40985;53.180;5.800;2022-12-18T16:36:02;6.82;;;4.45;;
55090;SDS011;40985;53.180;5.800;2022-12-18T16:38:28;7.10;;;3.75;;
55090;SDS011;40985;53.180;5.800;2022-12-18T16:40:54;6.90;;;4.78;;
55090;SDS011;40985;53.180;5.800;2022-12-18T16:43:38;6.90;;;4.55;;
55090;SDS011;40985;53.180;5.800;2022-12-18T16:46:04;8.45;;;4.75;;
55090;SDS011;40985;53.180;5.800;2022-12-18T16:48:30;7.72;;;4.20;;
55090;SDS011;40985;53.180;5.800;2022-12-18T16:50:59;9.43;;;5.53;;
55090;SDS011;40985;53.180;5.800;2022-12-18T16:53:26;6.57;;;4.22;;
55090;SDS011;40985;53.180;5.800;2022-12-18T16:55:55;9.80;;;4.97;;
55090;SDS011;40985;53.180;5.800;2022-12-18T16:58:21;8.98;;;5.15;;
55090;SDS011;40985;53.180;5.800;2022-12-18T17:00:47;9.30;;;5.72;;
55090;SDS011;40985;53.180;5.800;2022-12-18T17:03:13;8.40;;;4.72;;
55090;SDS011;40985;53.180;5.800;2022-12-18T17:05:38;8.13;;;5.55;;
55090;SDS011;40985;53.180;5.800;2022-12-18T17:08:04;8.43;;;5.53;;